Погода Муравчийна неделю

Гомельская область, Белоруссия

19 - 25 июля
  • 19июля
    Сегодня
    +15°
    +28°
    Ясно и безоблачно
    ВремяПогодаТемператураВлажностьДавлениеВетер, м/сВероятность осадков
    00:00Ясно и безоблачно+20°C95 %750 мм2.8 м/с17 %
    03:00Ясно и безоблачно+19°C97 %750 мм3.1 м/с2 %
    06:00Небольшая облачность+19°C96 %750 мм2.7 м/с2 %
    09:00Облачно с прояснениями+21°C80 %750 мм4.3 м/с14 %
    12:00Облачно с прояснениями+24°C60 %750 мм4.4 м/с20 %
    15:00Ясно и безоблачно+27°C49 %749 мм5.0 м/с2 %
    18:00Ясно и безоблачно+26°C50 %748 мм5.5 м/с2 %
    21:00Ясно и безоблачно+22°C67 %748 мм3.5 м/с2 %
  • 20июля
    Суббота
    +15°
    +26°
    Практически безоблачно
    ВремяПогодаТемператураВлажностьДавлениеВетер, м/сВероятность осадков
    00:00Ясно и безоблачно+19°C76 %748 мм2.4 м/с2 %
    03:00Ясно и безоблачно+16°C82 %748 мм2.6 м/с2 %
    06:00Ясно и безоблачно+16°C84 %747 мм2.2 м/с2 %
    09:00Ясно и безоблачно+21°C68 %747 мм3.2 м/с2 %
    12:00Ясно и безоблачно+24°C52 %747 мм3.8 м/с18 %
    15:00Практически безоблачно+26°C44 %746 мм4.2 м/с28 %
    18:00Небольшая облачность+25°C45 %746 мм4.7 м/с27 %
    21:00Практически безоблачно+21°C67 %746 мм2.3 м/с2 %
  • 21июля
    Воскресенье
    +16°
    +27°
    Практически безоблачно
    ВремяПогодаТемператураВлажностьДавлениеВетер, м/сВероятность осадков
    00:00Ясно и безоблачно+19°C78 %746 мм1.7 м/с2 %
    03:00Ясно и безоблачно+16°C88 %746 мм1.9 м/с2 %
    06:00Ясно и безоблачно+17°C89 %746 мм1.3 м/с2 %
    09:00Ясно и безоблачно+21°C65 %746 мм2.0 м/с2 %
    12:00Практически безоблачно+25°C52 %746 мм2.4 м/с12 %
    15:00Практически безоблачно+26°C48 %746 мм3.0 м/с22 %
    18:00Ясно и безоблачно+26°C48 %745 мм3.8 м/с21 %
    21:00Ясно и безоблачно+23°C62 %745 мм1.5 м/с7 %
  • 22июля
    Понедельник
    +16°
    +28°
    Облачно с прояснениями
    ВремяПогодаТемператураВлажностьДавлениеВетер, м/сВероятность осадков
    00:00Ясно и безоблачно+19°C79 %745 мм1.4 м/с4 %
    03:00Ясно и безоблачно+17°C91 %745 мм1.7 м/с4 %
    06:00Ясно и безоблачно+17°C92 %745 мм1.2 м/с7 %
    09:00Ясно и безоблачно+22°C66 %746 мм1.6 м/с8 %
    12:00Ясно и безоблачно+25°C56 %746 мм2.3 м/с28 %
    15:00Облачно с прояснениями+27°C53 %746 мм3.2 м/с48 %
    18:00Небольшая облачность, ливень+26°C66 %746 мм4.5 м/с52 %
    21:00Ясно и безоблачно+21°C78 %746 мм2.6 м/с13 %
  • 23июля
    Вторник
    +16°
    +28°
    Облачно с прояснениями
    ВремяПогодаТемператураВлажностьДавлениеВетер, м/сВероятность осадков
    00:00Ясно и безоблачно+18°C90 %746 мм1.6 м/с2 %
    03:00Ясно и безоблачно+17°C92 %746 мм2.0 м/с5 %
    06:00Ясно и безоблачно+17°C93 %746 мм1.7 м/с5 %
    09:00Ясно и безоблачно+22°C72 %746 мм2.7 м/с7 %
    12:00Практически безоблачно+25°C58 %746 мм3.1 м/с32 %
    15:00Облачно с прояснениями+27°C58 %746 мм4.1 м/с29 %
    18:00Небольшая облачность и лёгкий дождик+25°C63 %745 мм4.3 м/с42 %
    21:00Практически безоблачно+22°C76 %746 мм2.8 м/с13 %
Мы используем cookies
Соглашаюсь